Main page
METAR-TAF:

METAR-TAF

Airports :

Kefalonia, Greece

Kephalonia International Airport

latitude: 38-07N, longitude: 020-30E, elevation: 19 m

Current weather observation

The report was made 13 minutes ago, at 09:50 UTC
Wind 4 kt from the West
Temperature 22°C
Humidity 69%
Pressure 1022 hPa
Visibility: 8000 m
Few clouds at a height of 1800 ft

METAR: LGKF 190950Z 28004KT 8000 FEW018 22/16 Q1022

Time: 13:03 (10:03 UTC)

Forecast

The report was made 2 hours and 3 minutes ago, at 08:00 UTC
Forecast valid from 19 at 09 UTC to 19 at 18 UTC
Wind 3 kt from variable directions
Visibility: 8000 m
Few clouds at a height of 1500 ft

TAF: LGKF 190800Z 1909/1918 VRB03KT 8000 FEW015

Weather observations and forecasts of more than 4000 airports (METAR and TAF reports).

The available stations are represented by yellow and red dots on the map.

Hover mouse over dot to see the name of the station.

Then click to see weather observations and forecasts.

To change the map : click on the green buttons with a black cross to zoom in, on the green button with a dash to zoom out, or on the green arrows for adjacent maps.


METAR-TAF: